Time;durP1;ratioP1;P1;durP2;ratioP2;P2;SDS_P1;SDS_P2;PMS_P1;PMS_P2;Temp;Humidity;BMP_temperature;BMP_pressure;BME280_temperature;BME280_humidity;BME280_pressure;Samples;Min_cycle;Max_cycle;Signal;HPM_P1;HPM_P2
2021/11/27 00:00:44;;;;;;;4.30;3.90;;;3.90;46.90;;;;;;5093331;28;20577;-85
2021/11/27 00:03:11;;;;;;;5.03;4.53;;;4.00;47.40;;;;;;5092346;28;20413;-87
2021/11/27 00:05:38;;;;;;;5.47;4.40;;;4.00;47.40;;;;;;5092400;28;21104;-87
2021/11/27 00:08:06;;;;;;;5.53;4.63;;;3.90;46.90;;;;;;5092091;28;20405;-87
2021/11/27 00:10:35;;;;;;;4.70;4.30;;;4.00;47.40;;;;;;5092107;28;20416;-87
2021/11/27 00:13:02;;;;;;;4.87;4.37;;;3.90;47.40;;;;;;5091257;28;20420;-87
2021/11/27 00:15:29;;;;;;;5.03;4.63;;;3.90;47.40;;;;;;5091870;28;20503;-86
2021/11/27 00:17:57;;;;;;;5.10;4.60;;;3.90;47.40;;;;;;5090629;28;20419;-86
2021/11/27 00:20:27;;;;;;;5.00;4.50;;;3.90;46.90;;;;;;5090202;28;20425;-86
2021/11/27 00:22:53;;;;;;;5.10;4.53;;;3.90;46.50;;;;;;5097595;28;20906;-86
2021/11/27 00:25:19;;;;;;;4.60;4.20;;;3.90;46.60;;;;;;5095175;28;20430;-87
2021/11/27 00:27:45;;;;;;;4.50;4.10;;;3.90;47.00;;;;;;5090447;28;20456;-86
2021/11/27 00:30:16;;;;;;;4.50;4.20;;;3.90;46.90;;;;;;5091360;28;20452;-86
2021/11/27 00:32:43;;;;;;;4.33;4.03;;;3.90;46.90;;;;;;5090962;28;20574;-87
2021/11/27 00:35:09;;;;;;;4.10;3.80;;;3.90;47.40;;;;;;5090465;28;20409;-85
2021/11/27 00:37:35;;;;;;;5.20;4.30;;;3.90;47.40;;;;;;5092305;28;20405;-86
2021/11/27 00:40:06;;;;;;;5.70;5.10;;;3.90;47.40;;;;;;5090414;28;20987;-87
2021/11/27 00:42:32;;;;;;;4.73;4.07;;;3.90;46.40;;;;;;5090602;28;20500;-87
2021/11/27 00:44:58;;;;;;;4.90;4.40;;;3.90;47.40;;;;;;5090073;28;20991;-87
2021/11/27 00:47:23;;;;;;;4.37;4.07;;;3.90;47.40;;;;;;5090397;28;20208;-87
2021/11/27 00:49:53;;;;;;;4.50;4.13;;;3.90;47.40;;;;;;5089913;28;20190;-87
2021/11/27 00:52:20;;;;;;;6.13;5.53;;;3.90;47.40;;;;;;5090082;28;20181;-86
2021/11/27 00:54:46;;;;;;;5.33;4.83;;;3.90;47.40;;;;;;5089587;28;20427;-87
2021/11/27 00:57:11;;;;;;;6.07;5.47;;;3.90;47.40;;;;;;5090990;28;20873;-87
2021/11/27 00:59:37;;;;;;;4.60;4.20;;;3.80;47.70;;;;;;5090018;28;20460;-86
2021/11/27 01:02:03;;;;;;;5.93;5.30;;;3.80;47.70;;;;;;5090533;28;20171;-86
2021/11/27 01:04:29;;;;;;;4.33;3.93;;;3.90;47.80;;;;;;5089601;28;20755;-86
2021/11/27 01:06:54;;;;;;;5.73;5.00;;;3.90;47.90;;;;;;5089760;28;20409;-87
2021/11/27 01:09:20;;;;;;;4.43;3.93;;;3.80;47.70;;;;;;5090300;28;20201;-85
2021/11/27 01:11:51;;;;;;;5.43;4.93;;;3.90;48.30;;;;;;5089729;28;20175;-85
2021/11/27 01:14:20;;;;;;;4.93;4.53;;;3.90;47.40;;;;;;5089578;28;20185;-87
2021/11/27 01:16:49;;;;;;;5.35;4.85;;;3.90;48.50;;;;;;5088476;28;20417;-86
2021/11/27 01:19:16;;;;;;;5.33;4.80;;;3.90;48.00;;;;;;5089511;28;20700;-87
2021/11/27 01:21:45;;;;;;;5.13;4.73;;;3.90;48.30;;;;;;5089776;28;20413;-86
2021/11/27 01:24:14;;;;;;;4.40;4.00;;;3.90;48.20;;;;;;5089546;28;20413;-86
2021/11/27 01:26:40;;;;;;;5.33;4.93;;;3.90;48.50;;;;;;5088530;28;20408;-87
2021/11/27 01:29:07;;;;;;;4.80;4.40;;;4.00;48.00;;;;;;5089388;28;20427;-87
2021/11/27 01:31:34;;;;;;;4.90;4.50;;;3.90;47.80;;;;;;5088897;28;20447;-86
2021/11/27 01:34:00;;;;;;;5.07;4.67;;;3.90;48.30;;;;;;5089287;28;20777;-87
2021/11/27 01:36:26;;;;;;;5.30;4.73;;;4.00;48.60;;;;;;5090697;28;20408;-87
2021/11/27 01:38:51;;;;;;;4.40;4.10;;;4.00;48.00;;;;;;5089154;28;20456;-87
2021/11/27 01:41:17;;;;;;;4.83;4.23;;;4.00;47.50;;;;;;5088814;28;20179;-86
2021/11/27 01:43:44;;;;;;;5.87;4.63;;;4.00;48.00;;;;;;5089076;28;20171;-87
2021/11/27 01:46:11;;;;;;;4.97;4.57;;;4.00;48.00;;;;;;5088879;28;20426;-87
2021/11/27 01:48:40;;;;;;;6.20;4.63;;;3.90;48.00;;;;;;5088309;28;20758;-87
2021/11/27 01:51:14;;;;;;;7.13;5.27;;;3.90;48.30;;;;;;5088943;28;20420;-86
2021/11/27 01:53:44;;;;;;;6.00;5.40;;;4.00;48.90;;;;;;5088247;28;20416;-87
2021/11/27 01:56:18;;;;;;;5.57;5.07;;;4.00;48.50;;;;;;5088647;28;20845;-86
2021/11/27 01:58:44;;;;;;;5.40;4.90;;;3.90;48.40;;;;;;5091066;28;20847;-86
2021/11/27 02:01:15;;;;;;;5.80;5.37;;;3.90;48.80;;;;;;5089038;28;20503;-87
2021/11/27 02:03:42;;;;;;;6.33;5.77;;;3.90;49.20;;;;;;5088791;28;20803;-86
2021/11/27 02:06:11;;;;;;;6.50;5.90;;;3.90;49.10;;;;;;5089316;28;20507;-86
2021/11/27 02:08:37;;;;;;;6.07;5.57;;;3.90;49.50;;;;;;5089158;28;20421;-86
2021/11/27 02:11:05;;;;;;;6.00;5.30;;;3.90;49.20;;;;;;5089132;28;21007;-86
2021/11/27 02:13:31;;;;;;;5.37;4.87;;;3.90;49.60;;;;;;5089009;28;20503;-86
2021/11/27 02:15:57;;;;;;;5.23;4.83;;;3.90;50.00;;;;;;5091036;28;20838;-86
2021/11/27 02:18:22;;;;;;;5.30;4.80;;;3.90;49.90;;;;;;5090601;28;20570;-86
2021/11/27 02:21:04;;;;;;;5.40;5.00;;;3.80;50.20;;;;;;5089266;28;20455;-90
2021/11/27 02:23:31;;;;;;;5.70;5.03;;;3.90;50.00;;;;;;5089374;28;20174;-86
2021/11/27 02:26:01;;;;;;;6.23;5.17;;;3.90;50.70;;;;;;5089056;28;20413;-87
2021/11/27 02:28:28;;;;;;;5.50;4.57;;;3.90;50.50;;;;;;5088930;28;20459;-87
2021/11/27 02:30:54;;;;;;;5.50;5.00;;;3.90;50.60;;;;;;5088953;28;20416;-88
2021/11/27 02:33:19;;;;;;;4.50;4.20;;;3.90;51.00;;;;;;5088615;28;20380;-87
2021/11/27 02:35:45;;;;;;;5.20;4.80;;;3.90;50.90;;;;;;5089115;28;20524;-87
2021/11/27 02:38:11;;;;;;;4.97;4.47;;;3.80;51.10;;;;;;5089294;28;20210;-88
2021/11/27 02:40:37;;;;;;;4.60;4.20;;;3.80;51.30;;;;;;5088654;28;20185;-87
2021/11/27 02:43:04;;;;;;;4.90;4.40;;;3.80;51.20;;;;;;5089447;28;20175;-86
2021/11/27 02:45:30;;;;;;;5.10;4.60;;;3.80;51.90;;;;;;5088863;28;20424;-86
2021/11/27 02:47:55;;;;;;;4.63;4.27;;;3.80;52.60;;;;;;5088693;28;20425;-87
2021/11/27 02:50:21;;;;;;;4.93;4.53;;;3.80;51.80;;;;;;5088467;28;20470;-88
2021/11/27 02:52:47;;;;;;;5.57;5.00;;;3.80;52.10;;;;;;5089233;28;20935;-87
2021/11/27 02:55:13;;;;;;;5.23;4.73;;;3.90;51.70;;;;;;5089017;28;20175;-88
2021/11/27 02:57:39;;;;;;;4.43;4.03;;;3.80;52.10;;;;;;5089606;28;20171;-87
2021/11/27 03:00:09;;;;;;;4.40;4.10;;;3.80;52.10;;;;;;5090476;28;20513;-87
2021/11/27 03:02:35;;;;;;;5.50;5.00;;;3.80;52.40;;;;;;5088081;28;20420;-86
2021/11/27 03:05:01;;;;;;;5.00;4.30;;;3.80;52.10;;;;;;5088942;28;20415;-85
2021/11/27 03:10:26;;;;;;;5.10;4.70;;;3.80;52.10;;;;;;5067704;22;20449;-87
2021/11/27 03:12:52;;;;;;;4.60;4.20;;;3.80;52.20;;;;;;5067396;28;20506;-87
2021/11/27 03:15:19;;;;;;;5.07;4.60;;;3.90;52.10;;;;;;5079535;28;20502;-86
2021/11/27 03:17:46;;;;;;;4.87;4.47;;;3.90;52.10;;;;;;5087145;28;20416;-88
2021/11/27 03:20:15;;;;;;;4.90;4.40;;;3.90;52.10;;;;;;5083251;28;20460;-88
2021/11/27 03:22:42;;;;;;;4.00;3.70;;;4.00;52.20;;;;;;5072178;28;21139;-88
2021/11/27 03:25:10;;;;;;;4.33;4.03;;;4.00;52.20;;;;;;5071781;28;20439;-87
2021/11/27 03:27:36;;;;;;;3.60;3.40;;;4.00;52.10;;;;;;5074976;28;20412;-88
2021/11/27 03:30:04;;;;;;;3.97;3.67;;;3.90;52.10;;;;;;5074898;28;20412;-88
2021/11/27 03:32:30;;;;;;;4.57;3.37;;;4.00;52.20;;;;;;5075870;28;20562;-88
2021/11/27 03:34:56;;;;;;;4.57;4.17;;;4.00;52.20;;;;;;5093165;28;20454;-88
2021/11/27 03:37:22;;;;;;;4.00;3.60;;;4.00;52.00;;;;;;5075250;28;20175;-88
2021/11/27 03:39:48;;;;;;;4.03;3.73;;;4.00;52.20;;;;;;5075031;28;20975;-88
2021/11/27 03:42:16;;;;;;;4.10;3.80;;;4.10;53.50;;;;;;5074282;28;20179;-88
2021/11/27 03:44:43;;;;;;;4.63;3.60;;;4.00;53.80;;;;;;5074154;28;20408;-88
2021/11/27 03:47:09;;;;;;;4.30;3.70;;;4.00;55.00;;;;;;5074256;28;20419;-88
2021/11/27 03:49:35;;;;;;;4.67;4.27;;;3.90;55.40;;;;;;5073836;28;20457;-88
2021/11/27 03:52:02;;;;;;;4.50;4.10;;;3.90;55.90;;;;;;5074375;28;20452;-87
2021/11/27 03:54:28;;;;;;;5.37;4.80;;;3.90;56.00;;;;;;5074258;28;20589;-88
2021/11/27 03:56:54;;;;;;;4.70;4.30;;;3.90;56.00;;;;;;5073943;28;20412;-88
2021/11/27 03:59:21;;;;;;;4.37;3.97;;;3.90;56.90;;;;;;5073723;28;20850;-88
2021/11/27 04:01:47;;;;;;;5.03;3.87;;;3.90;56.80;;;;;;5073654;28;20754;-88
2021/11/27 04:04:13;;;;;;;3.77;3.47;;;3.90;56.50;;;;;;5074076;28;20495;-88
2021/11/27 04:06:38;;;;;;;4.37;3.93;;;3.90;56.90;;;;;;5073661;28;20509;-88
2021/11/27 04:09:07;;;;;;;4.13;3.70;;;3.90;56.70;;;;;;5073398;28;20181;-88
2021/11/27 04:11:33;;;;;;;4.27;3.87;;;3.80;56.30;;;;;;5074358;28;20178;-88
2021/11/27 04:13:59;;;;;;;4.17;3.77;;;3.90;56.80;;;;;;5074189;28;20528;-89
2021/11/27 04:16:25;;;;;;;3.73;3.37;;;3.90;56.80;;;;;;5075507;28;20448;-88
2021/11/27 04:18:51;;;;;;;4.60;4.20;;;3.90;57.10;;;;;;5074147;28;20206;-88
2021/11/27 04:21:19;;;;;;;3.80;3.47;;;3.90;56.60;;;;;;5073687;28;20171;-89
2021/11/27 04:23:46;;;;;;;3.67;3.37;;;3.90;56.00;;;;;;5073431;28;20480;-86
2021/11/27 04:26:12;;;;;;;3.43;3.13;;;3.90;56.80;;;;;;5073071;28;20421;-88
2021/11/27 04:28:38;;;;;;;3.27;2.90;;;3.90;56.40;;;;;;5074045;28;20474;-87
2021/11/27 04:31:04;;;;;;;3.43;2.87;;;3.90;57.30;;;;;;5073039;28;20415;-88
2021/11/27 04:33:30;;;;;;;3.10;2.80;;;3.90;56.90;;;;;;5073881;28;20183;-88
2021/11/27 04:35:56;;;;;;;3.47;3.27;;;3.90;57.10;;;;;;5074254;28;20776;-88
2021/11/27 04:38:23;;;;;;;2.47;2.33;;;3.80;57.20;;;;;;5073305;28;20417;-88
2021/11/27 04:40:49;;;;;;;3.07;2.77;;;3.90;57.20;;;;;;5073256;28;20175;-88
2021/11/27 04:43:17;;;;;;;2.30;2.10;;;3.90;56.90;;;;;;5073514;28;20461;-87
2021/11/27 04:45:43;;;;;;;2.40;2.20;;;3.90;57.70;;;;;;5073283;28;20495;-88
2021/11/27 04:48:10;;;;;;;2.47;2.30;;;3.90;57.60;;;;;;5072724;28;20420;-86
2021/11/27 04:50:37;;;;;;;2.60;2.40;;;3.90;57.00;;;;;;5071792;28;20409;-86
2021/11/27 04:53:03;;;;;;;2.37;2.17;;;3.90;57.10;;;;;;5071766;28;20405;-87
2021/11/27 04:55:30;;;;;;;4.20;2.30;;;3.90;57.50;;;;;;5072691;28;20453;-88
2021/11/27 04:57:56;;;;;;;2.27;2.10;;;4.00;57.70;;;;;;5072778;28;20419;-87
2021/11/27 05:00:27;;;;;;;2.10;2.00;;;4.00;58.30;;;;;;5072306;28;20983;-88
2021/11/27 05:02:54;;;;;;;3.30;2.10;;;4.00;57.70;;;;;;5091086;28;20174;-87
2021/11/27 05:05:20;;;;;;;1.93;1.83;;;4.00;58.20;;;;;;5072820;28;20466;-87
2021/11/27 05:07:45;;;;;;;2.40;1.50;;;4.00;57.70;;;;;;5072748;28;20924;-87
2021/11/27 05:10:12;;;;;;;2.00;1.80;;;4.00;58.50;;;;;;5093220;28;20416;-86
2021/11/27 05:12:38;;;;;;;1.73;1.63;;;4.10;58.00;;;;;;5072108;28;20629;-86
2021/11/27 05:15:05;;;;;;;1.90;1.40;;;4.00;57.80;;;;;;5071453;28;20417;-87
2021/11/27 05:17:31;;;;;;;1.80;1.70;;;4.10;57.60;;;;;;5072194;28;20930;-88
2021/11/27 05:19:57;;;;;;;1.93;1.77;;;4.10;57.00;;;;;;5071635;28;20552;-88
2021/11/27 05:22:23;;;;;;;2.03;1.83;;;4.10;57.90;;;;;;5072013;28;20420;-88
2021/11/27 05:24:48;;;;;;;1.90;1.53;;;4.10;57.70;;;;;;5072980;28;20185;-88
2021/11/27 05:27:16;;;;;;;1.87;1.77;;;4.10;58.00;;;;;;5071074;28;20250;-89
2021/11/27 05:29:42;;;;;;;1.93;1.47;;;4.10;57.00;;;;;;5072151;28;20599;-88
2021/11/27 05:32:20;;;;;;;2.60;1.77;;;4.10;57.70;;;;;;5072253;28;20773;-88
2021/11/27 05:34:47;;;;;;;1.70;1.60;;;4.10;57.20;;;;;;5072236;28;20416;-87
2021/11/27 05:37:13;;;;;;;1.80;1.70;;;4.10;57.70;;;;;;5071323;28;20533;-87
2021/11/27 05:39:41;;;;;;;1.67;1.53;;;4.10;57.60;;;;;;5072174;28;20460;-87
2021/11/27 05:42:07;;;;;;;2.00;1.70;;;4.10;57.70;;;;;;5070804;28;20177;-88
2021/11/27 05:44:37;;;;;;;1.57;1.40;;;4.10;57.90;;;;;;5089877;28;20511;-87
2021/11/27 05:47:03;;;;;;;1.63;1.53;;;4.10;57.70;;;;;;5073111;28;20173;-87
2021/11/27 05:49:29;;;;;;;2.00;1.80;;;4.10;57.70;;;;;;5071965;28;20411;-86
2021/11/27 05:51:55;;;;;;;2.07;1.90;;;4.10;58.20;;;;;;5073017;28;20174;-88
2021/11/27 05:54:20;;;;;;;1.60;1.50;;;4.10;58.00;;;;;;5073204;28;20269;-87
2021/11/27 05:56:46;;;;;;;1.30;1.20;;;4.10;57.70;;;;;;5073195;28;20170;-87
2021/11/27 05:59:12;;;;;;;1.83;1.53;;;4.10;58.40;;;;;;5090927;28;20251;-87
2021/11/27 06:01:37;;;;;;;1.50;1.30;;;4.10;58.50;;;;;;5074263;28;20578;-88
2021/11/27 06:04:03;;;;;;;1.30;1.20;;;4.10;58.30;;;;;;5073882;28;20173;-87
2021/11/27 06:06:29;;;;;;;1.70;1.60;;;4.10;58.10;;;;;;5073041;28;20206;-85
2021/11/27 06:08:55;;;;;;;2.23;1.97;;;4.10;58.60;;;;;;5073373;28;20459;-83
2021/11/27 06:11:22;;;;;;;2.13;1.50;;;4.10;58.30;;;;;;5073348;28;20174;-87
2021/11/27 06:13:49;;;;;;;1.70;1.60;;;4.10;58.40;;;;;;5073044;28;20432;-87
2021/11/27 06:16:14;;;;;;;2.03;1.83;;;4.10;58.60;;;;;;5073519;28;20420;-87
2021/11/27 06:18:40;;;;;;;1.40;1.30;;;4.20;58.50;;;;;;5074016;28;20448;-87
2021/11/27 06:21:06;;;;;;;2.50;1.60;;;4.10;58.80;;;;;;5073581;28;20170;-86
2021/11/27 06:23:32;;;;;;;1.90;1.80;;;4.10;58.50;;;;;;5073521;28;20166;-85
2021/11/27 06:25:58;;;;;;;2.20;1.50;;;4.10;59.00;;;;;;5074048;28;20583;-86
2021/11/27 06:28:24;;;;;;;2.20;1.60;;;4.10;59.00;;;;;;5073807;28;20501;-86
2021/11/27 06:30:50;;;;;;;1.80;1.70;;;4.20;59.20;;;;;;5073686;28;20437;-86
2021/11/27 06:33:16;;;;;;;1.63;1.53;;;4.10;59.30;;;;;;5074040;28;20202;-86
2021/11/27 06:35:42;;;;;;;2.40;1.93;;;4.10;58.50;;;;;;5073609;28;20637;-86
2021/11/27 06:38:08;;;;;;;2.30;2.10;;;4.20;59.60;;;;;;5074017;28;20413;-87
2021/11/27 06:40:37;;;;;;;1.60;1.50;;;4.20;58.50;;;;;;5073921;28;20920;-86
2021/11/27 06:43:03;;;;;;;1.60;1.50;;;4.20;58.50;;;;;;5074248;28;20409;-86
2021/11/27 06:45:31;;;;;;;1.40;1.30;;;4.10;58.70;;;;;;5074576;28;20425;-88
2021/11/27 06:47:58;;;;;;;2.03;1.60;;;4.10;58.80;;;;;;5081414;28;20920;-87
2021/11/27 06:50:24;;;;;;;1.30;1.20;;;4.10;58.90;;;;;;5072553;28;20424;-87
2021/11/27 06:52:50;;;;;;;1.60;1.50;;;4.20;59.20;;;;;;5075805;28;20428;-87
2021/11/27 06:55:16;;;;;;;1.80;1.70;;;4.20;59.60;;;;;;5073044;28;20432;-86
2021/11/27 06:57:42;;;;;;;1.87;1.63;;;4.20;59.30;;;;;;5073540;28;20468;-87
2021/11/27 07:00:09;;;;;;;2.67;1.70;;;4.20;58.90;;;;;;5074379;28;20876;-87
2021/11/27 07:02:34;;;;;;;1.70;1.60;;;4.20;59.40;;;;;;5080307;28;20175;-87
2021/11/27 07:05:00;;;;;;;1.57;1.47;;;4.20;58.70;;;;;;5077883;28;20428;-90
2021/11/27 07:07:26;;;;;;;2.50;1.37;;;4.20;59.60;;;;;;5077838;28;20175;-91
2021/11/27 07:09:53;;;;;;;1.73;1.63;;;4.20;59.60;;;;;;5077471;28;20544;-90
2021/11/27 07:12:19;;;;;;;1.50;1.40;;;4.20;59.40;;;;;;5076492;28;20904;-89
2021/11/27 07:14:44;;;;;;;1.50;1.40;;;4.20;58.70;;;;;;5083245;28;20480;-87
2021/11/27 07:17:10;;;;;;;1.73;1.63;;;4.20;59.60;;;;;;5085780;28;20650;-88
2021/11/27 07:19:36;;;;;;;1.97;1.87;;;4.20;59.10;;;;;;5081002;28;20234;-90
2021/11/27 07:22:03;;;;;;;1.93;1.80;;;4.10;59.20;;;;;;5077330;28;20178;-91
2021/11/27 07:24:29;;;;;;;2.00;1.90;;;4.20;58.60;;;;;;5094993;28;20569;-90
2021/11/27 07:26:54;;;;;;;1.90;1.50;;;4.20;59.60;;;;;;5074689;28;20433;-89
2021/11/27 07:29:20;;;;;;;2.40;1.57;;;4.20;58.80;;;;;;5077380;28;20418;-89
2021/11/27 07:31:47;;;;;;;1.70;1.60;;;4.20;59.20;;;;;;5076992;28;20256;-88
2021/11/27 07:34:13;;;;;;;2.17;2.03;;;4.20;59.50;;;;;;5094597;28;20178;-88
2021/11/27 07:36:39;;;;;;;2.07;1.90;;;4.10;59.40;;;;;;5094045;28;20424;-86
2021/11/27 07:39:13;;;;;;;2.30;2.00;;;4.20;59.10;;;;;;5084307;28;20459;-88
2021/11/27 07:41:39;;;;;;;2.07;1.87;;;4.20;59.30;;;;;;5091190;28;20412;-87
2021/11/27 07:44:05;;;;;;;2.37;2.17;;;4.20;59.10;;;;;;5093479;28;20715;-86
2021/11/27 07:46:31;;;;;;;2.27;2.07;;;4.20;59.60;;;;;;5090923;28;20749;-87
2021/11/27 07:48:57;;;;;;;2.07;1.93;;;4.20;58.70;;;;;;5076493;28;20183;-87
2021/11/27 07:51:22;;;;;;;2.40;2.20;;;4.20;59.30;;;;;;5075503;28;20182;-87
2021/11/27 07:53:48;;;;;;;2.80;2.10;;;4.20;59.70;;;;;;5076335;28;20186;-87
2021/11/27 07:56:14;;;;;;;2.20;1.90;;;4.20;59.50;;;;;;5076113;28;20689;-87
2021/11/27 07:58:41;;;;;;;2.30;2.10;;;4.20;59.30;;;;;;5076518;28;20233;-84
2021/11/27 08:01:07;;;;;;;2.60;2.40;;;4.20;59.40;;;;;;5076726;28;20820;-87
2021/11/27 08:03:33;;;;;;;2.03;1.93;;;4.20;59.80;;;;;;5094816;28;20415;-86
2021/11/27 08:05:58;;;;;;;3.60;2.60;;;4.20;59.80;;;;;;5075945;28;20777;-88
2021/11/27 08:08:24;;;;;;;2.90;2.50;;;4.20;59.90;;;;;;5076167;28;20409;-86
2021/11/27 08:10:50;;;;;;;2.80;2.50;;;4.20;60.10;;;;;;5075782;28;20181;-84
2021/11/27 08:13:16;;;;;;;2.13;2.03;;;4.20;59.90;;;;;;5075163;28;20197;-82
2021/11/27 08:15:41;;;;;;;3.40;3.10;;;4.30;60.00;;;;;;5076407;28;20187;-84
2021/11/27 08:18:07;;;;;;;2.20;2.10;;;4.30;60.10;;;;;;5075917;28;20170;-83
2021/11/27 08:20:34;;;;;;;2.23;2.10;;;4.50;59.70;;;;;;5075074;28;20217;-84
2021/11/27 08:23:00;;;;;;;3.47;2.07;;;5.00;65.60;;;;;;5075945;28;20641;-84
2021/11/27 08:25:27;;;;;;;2.60;2.40;;;4.80;57.80;;;;;;5079776;28;20425;-84
2021/11/27 08:27:53;;;;;;;1.80;1.70;;;4.80;57.60;;;;;;5079666;28;20421;-87
2021/11/27 08:30:19;;;;;;;2.27;2.07;;;4.80;58.40;;;;;;5075262;28;20440;-89
2021/11/27 08:32:49;;;;;;;2.50;2.37;;;4.70;57.50;;;;;;5085268;28;20424;-90
2021/11/27 08:35:15;;;;;;;2.03;1.83;;;4.70;57.50;;;;;;5096237;28;20448;-91
2021/11/27 08:37:41;;;;;;;2.70;2.50;;;4.80;58.50;;;;;;5081553;28;20489;-90
2021/11/27 08:40:07;;;;;;;2.70;1.90;;;4.80;57.60;;;;;;5085160;28;20456;-90
2021/11/27 08:42:33;;;;;;;1.57;1.47;;;4.80;57.60;;;;;;5089592;28;20183;-91
2021/11/27 08:44:59;;;;;;;2.33;1.73;;;4.90;56.40;;;;;;5078014;28;20433;-92
2021/11/27 08:47:25;;;;;;;1.50;1.40;;;4.90;56.00;;;;;;5085634;28;20731;-86
2021/11/27 08:49:52;;;;;;;1.77;1.67;;;5.00;55.70;;;;;;5092532;28;20909;-91
2021/11/27 08:52:19;;;;;;;1.50;1.30;;;5.00;55.50;;;;;;5079236;28;20194;-91
2021/11/27 08:54:45;;;;;;;2.70;1.50;;;5.10;54.50;;;;;;5078201;28;20505;-91
2021/11/27 08:57:11;;;;;;;2.17;1.97;;;5.20;54.80;;;;;;5078045;28;20911;-92
2021/11/27 08:59:37;;;;;;;1.93;1.77;;;5.30;54.40;;;;;;5082995;28;20252;-90
2021/11/27 09:02:03;;;;;;;1.50;1.40;;;5.30;53.30;;;;;;5091414;28;20409;-90
2021/11/27 09:04:29;;;;;;;2.20;2.00;;;5.30;54.10;;;;;;5094602;28;20660;-91
2021/11/27 09:06:55;;;;;;;2.00;1.53;;;5.40;53.90;;;;;;5082044;28;20926;-89
2021/11/27 09:09:20;;;;;;;1.67;1.47;;;5.30;53.30;;;;;;5078269;28;20661;-90
2021/11/27 09:11:49;;;;;;;1.40;1.30;;;5.40;53.50;;;;;;5076395;28;20421;-90
2021/11/27 09:14:16;;;;;;;2.23;2.07;;;5.40;52.80;;;;;;5075981;28;20279;-90
2021/11/27 09:16:42;;;;;;;1.90;1.80;;;5.40;52.30;;;;;;5076884;28;20915;-90
2021/11/27 09:19:07;;;;;;;2.33;1.67;;;5.40;52.90;;;;;;5076392;28;20463;-90
2021/11/27 09:21:34;;;;;;;1.27;1.17;;;5.50;53.40;;;;;;5076632;28;20412;-90
2021/11/27 09:24:01;;;;;;;1.53;1.43;;;5.50;53.40;;;;;;5076035;28;20178;-90
2021/11/27 09:26:29;;;;;;;2.53;1.23;;;5.60;53.40;;;;;;5076840;28;20421;-90
2021/11/27 09:28:56;;;;;;;1.43;1.33;;;5.60;52.90;;;;;;5077220;28;20777;-90
2021/11/27 09:31:21;;;;;;;3.77;1.60;;;5.60;52.80;;;;;;5077082;28;20424;-89
2021/11/27 09:33:47;;;;;;;1.97;1.77;;;5.60;52.40;;;;;;5077000;28;20820;-91
2021/11/27 09:36:15;;;;;;;1.73;1.63;;;5.70;53.20;;;;;;5076928;28;20416;-88
2021/11/27 09:38:43;;;;;;;1.97;1.40;;;5.70;53.00;;;;;;5076254;28;20199;-82
2021/11/27 09:41:17;;;;;;;1.43;1.33;;;5.90;52.80;;;;;;5075464;28;20417;-86
2021/11/27 09:43:45;;;;;;;1.30;1.20;;;5.90;51.30;;;;;;5075517;28;20446;-87
2021/11/27 09:46:13;;;;;;;1.90;1.70;;;5.90;52.40;;;;;;5075980;28;20420;-88
2021/11/27 09:48:41;;;;;;;1.07;1.00;;;5.80;53.60;;;;;;5075326;28;20473;-87
2021/11/27 09:51:09;;;;;;;1.27;1.17;;;5.80;53.70;;;;;;5074403;28;20428;-88
2021/11/27 09:53:37;;;;;;;2.30;1.03;;;5.80;54.60;;;;;;5074885;28;20428;-88
2021/11/27 09:56:04;;;;;;;0.70;0.70;;;5.70;56.00;;;;;;5080953;28;20428;-88
2021/11/27 09:58:30;;;;;;;2.43;1.10;;;5.70;56.20;;;;;;5092676;28;20453;-88
2021/11/27 10:00:57;;;;;;;1.50;1.40;;;5.70;56.00;;;;;;5092103;28;20501;-87
2021/11/27 10:03:24;;;;;;;1.20;1.10;;;5.70;56.30;;;;;;5092421;28;20204;-89
2021/11/27 10:05:50;;;;;;;1.17;1.07;;;5.70;56.50;;;;;;5075270;28;20413;-86
2021/11/27 10:08:16;;;;;;;2.43;1.70;;;5.60;55.10;;;;;;5092484;28;20416;-86
2021/11/27 10:10:43;;;;;;;1.70;1.60;;;5.70;56.30;;;;;;5092489;28;20409;-84
2021/11/27 10:13:16;;;;;;;1.97;1.17;;;5.80;56.50;;;;;;5074562;28;20209;-85
2021/11/27 10:15:44;;;;;;;1.23;1.10;;;5.70;55.10;;;;;;5074245;28;20421;-86
2021/11/27 10:18:24;;;;;;;2.00;1.20;;;5.70;54.90;;;;;;5074486;28;20487;-86
2021/11/27 10:21:16;;;;;;;1.50;1.10;;;5.70;55.60;;;;;;5074632;28;20413;-86
2021/11/27 10:23:42;;;;;;;2.23;1.40;;;5.80;54.00;;;;;;5074074;28;20435;-86
2021/11/27 10:26:08;;;;;;;5.80;1.87;;;5.80;55.20;;;;;;5065678;28;20947;-85
2021/11/27 10:28:34;;;;;;;1.13;1.13;;;5.90;55.10;;;;;;5078914;28;20813;-85
2021/11/27 10:31:05;;;;;;;1.40;1.13;;;5.90;53.40;;;;;;5075501;28;20404;-85
2021/11/27 10:33:37;;;;;;;3.10;1.50;;;5.90;53.80;;;;;;5075662;28;20171;-85
2021/11/27 10:36:05;;;;;;;3.30;1.90;;;6.00;54.20;;;;;;5075436;28;20407;-85
2021/11/27 10:38:37;;;;;;;1.53;1.43;;;6.00;53.90;;;;;;5076248;28;20465;-86
2021/11/27 10:41:03;;;;;;;1.20;1.10;;;6.00;53.30;;;;;;5093576;28;20813;-85
2021/11/27 10:43:30;;;;;;;1.30;1.20;;;6.10;51.90;;;;;;5081032;28;20825;-85
2021/11/27 10:45:56;;;;;;;2.50;1.37;;;6.00;50.50;;;;;;5094516;28;20401;-85
2021/11/27 10:48:24;;;;;;;1.23;1.13;;;6.00;50.70;;;;;;5076092;28;20503;-85
2021/11/27 10:50:52;;;;;;;2.13;1.77;;;6.00;50.20;;;;;;5074621;28;20182;-85
2021/11/27 10:53:28;;;;;;;2.87;1.70;;;6.10;51.50;;;;;;5083914;28;20420;-85
2021/11/27 10:56:12;;;;;;;1.37;0.90;;;6.10;51.10;;;;;;5077333;28;20409;-85
2021/11/27 10:58:59;;;;;;;1.70;1.37;;;6.10;49.90;;;;;;5077335;28;20463;-84
2021/11/27 11:01:25;;;;;;;1.90;1.57;;;6.20;49.30;;;;;;5077186;28;20416;-85
2021/11/27 11:03:51;;;;;;;1.50;1.27;;;6.20;49.50;;;;;;5085432;28;20413;-84
2021/11/27 11:06:27;;;;;;;1.57;1.47;;;6.20;48.60;;;;;;5077134;28;20400;-84
2021/11/27 11:08:54;;;;;;;1.50;1.20;;;6.20;49.10;;;;;;5077498;28;20189;-84
2021/11/27 11:11:27;;;;;;;1.30;1.20;;;6.20;49.20;;;;;;5077248;28;20421;-85
2021/11/27 11:13:55;;;;;;;2.47;1.53;;;6.20;49.20;;;;;;5077284;28;20475;-85
2021/11/27 11:16:24;;;;;;;1.47;1.37;;;6.20;49.10;;;;;;5076934;28;20417;-84
2021/11/27 11:18:54;;;;;;;2.20;1.23;;;6.20;48.40;;;;;;5076987;28;20456;-87
2021/11/27 11:21:21;;;;;;;1.60;1.50;;;6.20;49.20;;;;;;5077251;28;20912;-84
2021/11/27 11:23:49;;;;;;;2.03;1.37;;;6.20;49.20;;;;;;5077904;28;20871;-89
2021/11/27 11:26:23;;;;;;;1.50;1.40;;;6.20;48.40;;;;;;5077077;28;20413;-86
2021/11/27 11:28:57;;;;;;;1.97;1.40;;;6.20;48.60;;;;;;5076773;28;20416;-83
2021/11/27 11:31:30;;;;;;;1.87;1.23;;;6.20;48.20;;;;;;5076977;28;20866;-89
2021/11/27 11:33:59;;;;;;;3.30;1.67;;;6.10;49.10;;;;;;5076913;28;20445;-86
2021/11/27 11:36:26;;;;;;;3.60;1.83;;;6.20;49.00;;;;;;5077304;28;20409;-87
2021/11/27 11:38:55;;;;;;;1.67;1.57;;;6.20;49.10;;;;;;5076765;28;20479;-85
2021/11/27 11:41:22;;;;;;;2.30;1.33;;;6.20;49.50;;;;;;5076814;28;20405;-89
2021/11/27 11:43:50;;;;;;;8.33;1.70;;;6.20;49.00;;;;;;5076714;28;20446;-86
2021/11/27 11:46:16;;;;;;;2.43;2.23;;;6.20;49.20;;;;;;5076446;28;20404;-86
2021/11/27 11:48:53;;;;;;;4.73;1.60;;;6.30;48.80;;;;;;5076223;28;20418;-88
2021/11/27 11:51:47;;;;;;;5.47;3.03;;;6.20;49.30;;;;;;5076602;28;20444;-83
2021/11/27 11:54:14;;;;;;;2.70;1.90;;;6.40;49.90;;;;;;5076356;28;20421;-85
2021/11/27 11:56:43;;;;;;;3.40;1.93;;;6.40;49.70;;;;;;5076556;28;20413;-83
2021/11/27 11:59:21;;;;;;;2.13;1.97;;;6.40;49.40;;;;;;5076804;28;20864;-86
2021/11/27 12:02:16;;;;;;;2.57;2.30;;;6.50;49.90;;;;;;5077058;28;20408;-87
2021/11/27 12:05:12;;;;;;;4.53;2.93;;;6.50;50.20;;;;;;5075679;28;20458;-85
2021/11/27 12:10:37;;;;;;;3.80;2.57;;;6.50;49.50;;;;;;5094230;28;20413;-89
2021/11/27 12:13:09;;;;;;;2.37;1.63;;;6.50;50.20;;;;;;5076345;28;20428;-86
2021/11/27 12:15:46;;;;;;;3.00;1.63;;;6.40;49.40;;;;;;5076448;28;20418;-87
2021/11/27 12:18:21;;;;;;;2.00;1.50;;;6.40;50.10;;;;;;5076254;28;20461;-87
2021/11/27 12:20:54;;;;;;;3.03;2.20;;;6.30;50.00;;;;;;5076009;28;20492;-85
2021/11/27 12:23:26;;;;;;;2.27;1.67;;;6.40;51.70;;;;;;5077066;28;20445;-85
2021/11/27 12:26:10;;;;;;;3.70;1.80;;;6.40;50.30;;;;;;5076987;28;20409;-89
2021/11/27 12:28:40;;;;;;;3.60;2.17;;;6.30;50.50;;;;;;5076717;28;20486;-89
2021/11/27 12:31:37;;;;;;;2.00;1.90;;;6.30;50.50;;;;;;5076374;28;20437;-87
2021/11/27 12:34:05;;;;;;;3.50;1.93;;;6.30;50.50;;;;;;5076347;28;20481;-89
2021/11/27 12:36:31;;;;;;;2.10;1.60;;;6.20;50.90;;;;;;5076458;28;20418;-86
2021/11/27 12:39:21;;;;;;;2.27;1.80;;;6.20;51.60;;;;;;5093749;28;20531;-91
2021/11/27 12:41:52;;;;;;;2.80;1.83;;;6.20;51.10;;;;;;5075794;28;20419;-87
2021/11/27 12:44:23;;;;;;;1.57;1.47;;;6.20;52.10;;;;;;5074562;28;20422;-85
2021/11/27 12:46:56;;;;;;;1.40;1.30;;;6.20;51.50;;;;;;5074793;28;20678;-88
2021/11/27 12:49:31;;;;;;;2.60;1.43;;;6.30;52.00;;;;;;5075827;28;20419;-91
2021/11/27 12:52:24;;;;;;;1.30;1.20;;;6.40;51.60;;;;;;5077126;28;20408;-91
2021/11/27 12:55:08;;;;;;;2.70;1.97;;;6.30;50.10;;;;;;5076053;28;20416;-88
2021/11/27 12:57:39;;;;;;;2.00;1.90;;;6.40;51.30;;;;;;5077734;28;20451;-88
2021/11/27 13:00:22;;;;;;;3.70;2.47;;;6.50;50.30;;;;;;5080848;28;20828;-87
2021/11/27 13:02:53;;;;;;;1.70;1.60;;;6.50;52.70;;;;;;5074937;28;20876;-86
2021/11/27 13:05:19;;;;;;;1.20;1.10;;;6.40;49.30;;;;;;5075270;28;20309;-88
2021/11/27 13:07:45;;;;;;;2.63;1.83;;;6.40;49.40;;;;;;5093310;28;20421;-88